Time;durP1;ratioP1;P1;durP2;ratioP2;P2;SDS_P1;SDS_P2;PMS_P1;PMS_P2;Temp;Humidity;BMP_temperature;BMP_pressure;BME280_temperature;BME280_humidity;BME280_pressure;Samples;Min_cycle;Max_cycle;Signal;HPM_P1;HPM_P2
2023/10/02 00:00:42;;;;;;;781.87;507.90;;;;;;;;;;4922245;29;20509;-68
2023/10/02 00:03:11;;;;;;;782.83;507.27;;;;;;;;;;4918895;29;20447;-68
2023/10/02 00:05:50;;;;;;;783.27;505.43;;;;;;;;;;4913886;29;20477;-69
2023/10/02 00:14:18;;;;;;;782.80;505.20;;;;;;;;;;4921145;29;20535;-69
2023/10/02 00:17:00;;;;;;;784.45;499.83;;;;;;;;;;4921010;29;20529;-68
2023/10/02 00:19:33;;;;;;;781.33;500.60;;;;;;;;;;4924224;29;20537;-68
2023/10/02 00:22:05;;;;;;;780.22;498.60;;;;;;;;;;4921270;29;20443;-68
2023/10/02 00:24:35;;;;;;;781.15;500.58;;;;;;;;;;4923409;29;20548;-68
2023/10/02 00:27:02;;;;;;;784.50;507.17;;;;;;;;;;4902976;29;21489;-68
2023/10/02 00:29:30;;;;;;;783.67;502.88;;;;;;;;;;4923530;29;20535;-68
2023/10/02 00:31:59;;;;;;;784.37;500.53;;;;;;;;;;4919002;29;20455;-68
2023/10/02 00:34:33;;;;;;;779.33;498.45;;;;;;;;;;4923272;29;20454;-68
2023/10/02 00:37:13;;;;;;;779.58;495.05;;;;;;;;;;4920120;29;20454;-68
2023/10/02 00:39:41;;;;;;;779.08;491.75;;;;;;;;;;4912163;29;20452;-68
2023/10/02 00:42:24;;;;;;;774.63;497.45;;;;;;;;;;4924081;29;20471;-68
2023/10/02 00:45:12;;;;;;;787.42;484.85;;;;;;;;;;4920585;29;20477;-68
2023/10/02 00:47:42;;;;;;;767.83;469.33;;;;;;;;;;4915445;29;20441;-68
2023/10/02 00:50:16;;;;;;;782.33;484.45;;;;;;;;;;4920689;29;20485;-68
2023/10/02 00:52:47;;;;;;;780.10;483.13;;;;;;;;;;4928543;29;20783;-68
2023/10/02 00:55:17;;;;;;;789.35;491.30;;;;;;;;;;4931686;29;20446;-68
2023/10/02 00:57:45;;;;;;;783.75;490.48;;;;;;;;;;4930514;29;20475;-68
2023/10/02 01:00:19;;;;;;;797.55;486.05;;;;;;;;;;4925024;29;20512;-68
2023/10/02 01:02:48;;;;;;;755.20;482.42;;;;;;;;;;4926204;29;20546;-68
2023/10/02 01:05:30;;;;;;;759.22;487.52;;;;;;;;;;4926491;29;20435;-68
2023/10/02 01:08:03;;;;;;;702.58;466.10;;;;;;;;;;4929719;29;20470;-68
2023/10/02 01:10:30;;;;;;;738.28;469.70;;;;;;;;;;4921488;29;20445;-69
2023/10/02 01:13:02;;;;;;;701.23;462.90;;;;;;;;;;4912392;29;20834;-68
2023/10/02 01:15:29;;;;;;;754.15;474.58;;;;;;;;;;4930480;29;20522;-68
2023/10/02 01:18:21;;;;;;;709.40;465.90;;;;;;;;;;4925457;29;20482;-68
2023/10/02 01:20:53;;;;;;;684.85;463.55;;;;;;;;;;4914669;29;20445;-68
2023/10/02 01:23:23;;;;;;;631.20;452.15;;;;;;;;;;4921328;29;20447;-68
2023/10/02 01:25:50;;;;;;;672.60;447.40;;;;;;;;;;4916327;29;20439;-68
2023/10/02 01:28:25;;;;;;;737.55;464.95;;;;;;;;;;4925840;29;20433;-68
2023/10/02 01:30:55;;;;;;;744.38;453.90;;;;;;;;;;4923426;29;20522;-68
2023/10/02 01:33:26;;;;;;;371.00;331.75;;;;;;;;;;4920456;29;20444;-68
2023/10/02 01:35:58;;;;;;;577.15;439.75;;;;;;;;;;4924561;29;20443;-68
2023/10/02 01:38:27;;;;;;;448.52;402.85;;;;;;;;;;4923560;29;20451;-68
2023/10/02 01:41:01;;;;;;;560.63;441.60;;;;;;;;;;4923881;29;20508;-68
2023/10/02 01:43:32;;;;;;;476.40;428.30;;;;;;;;;;4905782;29;20441;-70
2023/10/02 01:46:03;;;;;;;494.80;441.45;;;;;;;;;;4927363;29;20434;-68
2023/10/02 01:48:44;;;;;;;568.50;454.52;;;;;;;;;;4915764;29;20441;-68
2023/10/02 01:51:20;;;;;;;519.55;452.17;;;;;;;;;;4923970;29;21298;-68
2023/10/02 01:53:49;;;;;;;681.55;473.88;;;;;;;;;;4924264;29;20439;-68
2023/10/02 01:56:17;;;;;;;708.10;468.40;;;;;;;;;;4920915;29;20526;-68
2023/10/02 01:58:47;;;;;;;708.67;473.67;;;;;;;;;;4923300;29;20506;-68
2023/10/02 02:01:20;;;;;;;716.08;451.70;;;;;;;;;;4919902;29;20443;-69
2023/10/02 02:03:50;;;;;;;755.13;485.33;;;;;;;;;;4922250;29;20463;-68
2023/10/02 02:06:21;;;;;;;794.10;495.75;;;;;;;;;;4924698;29;20444;-68
2023/10/02 02:08:53;;;;;;;771.83;493.30;;;;;;;;;;4909765;29;20435;-68
2023/10/02 02:11:21;;;;;;;731.25;464.58;;;;;;;;;;4918711;29;20809;-68
2023/10/02 02:13:49;;;;;;;747.42;485.35;;;;;;;;;;4917982;29;20473;-68
2023/10/02 02:16:22;;;;;;;725.90;440.13;;;;;;;;;;4922032;29;20475;-68
2023/10/02 02:18:56;;;;;;;740.40;469.25;;;;;;;;;;4930265;29;20492;-68
2023/10/02 02:21:24;;;;;;;729.30;463.52;;;;;;;;;;4923572;29;20441;-68
2023/10/02 02:24:06;;;;;;;763.13;472.87;;;;;;;;;;4923239;29;20433;-68
2023/10/02 02:26:36;;;;;;;656.85;449.63;;;;;;;;;;4931141;29;20499;-67
2023/10/02 02:29:04;;;;;;;711.78;466.65;;;;;;;;;;4927342;29;20460;-68
2023/10/02 02:31:31;;;;;;;669.53;453.63;;;;;;;;;;4924272;29;20474;-68
2023/10/02 02:34:03;;;;;;;748.03;472.63;;;;;;;;;;4923973;29;20445;-68
2023/10/02 02:36:35;;;;;;;676.95;453.25;;;;;;;;;;4911081;29;20494;-68
2023/10/02 02:39:16;;;;;;;752.40;484.33;;;;;;;;;;4923233;29;20495;-67
2023/10/02 02:41:45;;;;;;;765.00;475.02;;;;;;;;;;4914419;29;20441;-68
2023/10/02 02:46:59;;;;;;;763.85;475.48;;;;;;;;;;4925241;29;20446;-68
2023/10/02 02:49:29;;;;;;;588.23;429.90;;;;;;;;;;4925884;29;21037;-68
2023/10/02 02:51:56;;;;;;;717.22;460.52;;;;;;;;;;4924401;29;20531;-68
2023/10/02 02:54:28;;;;;;;648.40;446.07;;;;;;;;;;4922337;29;20447;-68
2023/10/02 02:57:00;;;;;;;586.17;434.83;;;;;;;;;;4920132;29;20790;-68
2023/10/02 02:59:28;;;;;;;530.17;425.00;;;;;;;;;;4921560;29;20440;-68
2023/10/02 03:02:08;;;;;;;479.23;406.38;;;;;;;;;;4924380;29;20477;-68
2023/10/02 03:04:42;;;;;;;688.80;451.33;;;;;;;;;;4921292;29;20518;-68
2023/10/02 03:07:17;;;;;;;755.80;468.37;;;;;;;;;;4926097;29;20663;-68
2023/10/02 03:09:45;;;;;;;767.53;474.90;;;;;;;;;;4908046;29;21081;-68
2023/10/02 03:12:13;;;;;;;732.20;478.08;;;;;;;;;;4921292;29;20848;-68
2023/10/02 03:14:40;;;;;;;785.90;492.33;;;;;;;;;;4924599;29;20531;-68
2023/10/02 03:17:28;;;;;;;786.63;497.77;;;;;;;;;;4919034;29;20861;-68
2023/10/02 03:19:57;;;;;;;769.50;492.45;;;;;;;;;;4918057;29;20444;-68
2023/10/02 03:22:24;;;;;;;764.47;489.63;;;;;;;;;;4912679;29;20449;-68
2023/10/02 03:25:25;;;;;;;764.78;504.25;;;;;;;;;;4904912;29;20441;-68
2023/10/02 03:27:48;;;;;;;760.30;503.33;;;;;;;;;;4915630;29;20448;-68
2023/10/02 03:30:35;;;;;;;758.83;500.25;;;;;;;;;;4919980;29;20437;-68
2023/10/02 03:33:03;;;;;;;763.17;494.53;;;;;;;;;;4920279;29;20431;-68
2023/10/02 03:35:39;;;;;;;757.90;496.55;;;;;;;;;;4928305;29;20464;-68
2023/10/02 03:38:06;;;;;;;750.47;461.27;;;;;;;;;;4927372;29;20431;-68
2023/10/02 03:40:34;;;;;;;772.80;486.13;;;;;;;;;;4918856;29;20528;-68
2023/10/02 03:43:19;;;;;;;768.75;483.73;;;;;;;;;;4918555;29;20450;-68
2023/10/02 03:45:51;;;;;;;765.38;483.50;;;;;;;;;;4925228;29;20992;-68
2023/10/02 03:48:18;;;;;;;750.00;462.33;;;;;;;;;;4923545;29;20522;-68
2023/10/02 03:50:45;;;;;;;719.80;458.40;;;;;;;;;;4926307;29;20525;-67
2023/10/02 03:53:12;;;;;;;744.13;457.83;;;;;;;;;;4922684;29;20447;-67
2023/10/02 03:55:40;;;;;;;765.20;471.92;;;;;;;;;;4924371;29;20471;-68
2023/10/02 03:58:09;;;;;;;767.70;468.92;;;;;;;;;;4920492;29;20496;-67
2023/10/02 04:00:50;;;;;;;760.92;480.95;;;;;;;;;;4916521;29;20550;-67
2023/10/02 04:03:18;;;;;;;764.35;483.83;;;;;;;;;;4918794;29;20451;-67
2023/10/02 04:05:46;;;;;;;671.27;448.07;;;;;;;;;;4927877;29;20435;-67
2023/10/02 04:08:14;;;;;;;713.83;464.20;;;;;;;;;;4915351;29;20463;-68
2023/10/02 04:10:55;;;;;;;669.00;456.27;;;;;;;;;;4916165;29;20850;-67
2023/10/02 04:13:32;;;;;;;730.55;471.77;;;;;;;;;;4920651;29;20445;-67
2023/10/02 04:19:02;;;;;;;778.60;489.08;;;;;;;;;;4924892;29;20478;-67
2023/10/02 04:21:33;;;;;;;783.42;477.52;;;;;;;;;;4928242;29;20443;-68
2023/10/02 04:24:00;;;;;;;709.27;450.60;;;;;;;;;;4921803;29;20445;-67
2023/10/02 04:26:33;;;;;;;724.33;458.98;;;;;;;;;;4922724;29;20456;-67
2023/10/02 04:32:04;;;;;;;667.42;443.25;;;;;;;;;;4929211;29;20498;-67
2023/10/02 04:34:36;;;;;;;715.90;448.98;;;;;;;;;;4918655;29;20447;-67
2023/10/02 04:37:19;;;;;;;762.60;456.95;;;;;;;;;;4929523;29;20530;-68
2023/10/02 04:40:23;;;;;;;769.58;460.27;;;;;;;;;;4910597;29;20443;-67
2023/10/02 04:43:19;;;;;;;763.22;457.42;;;;;;;;;;4927779;29;20477;-67
2023/10/02 04:45:47;;;;;;;748.08;462.98;;;;;;;;;;4925601;29;20494;-67
2023/10/02 04:48:16;;;;;;;758.75;451.95;;;;;;;;;;4924062;29;20530;-67
2023/10/02 04:50:45;;;;;;;766.45;461.52;;;;;;;;;;4926651;29;20453;-67
2023/10/02 04:53:22;;;;;;;752.13;463.83;;;;;;;;;;4927882;29;20449;-67
2023/10/02 04:58:49;;;;;;;747.78;461.90;;;;;;;;;;4921772;29;20937;-67
2023/10/02 05:01:29;;;;;;;756.17;467.30;;;;;;;;;;4922281;29;20450;-67
2023/10/02 05:04:02;;;;;;;747.38;469.70;;;;;;;;;;4927113;29;20439;-67
2023/10/02 05:06:44;;;;;;;743.00;473.85;;;;;;;;;;4918862;29;20437;-67
2023/10/02 05:11:51;;;;;;;743.00;478.27;;;;;;;;;;4930187;29;20454;-67
2023/10/02 05:14:29;;;;;;;741.30;471.75;;;;;;;;;;4928962;29;20435;-67
2023/10/02 05:17:17;;;;;;;740.13;479.15;;;;;;;;;;4927206;29;20526;-67
2023/10/02 05:19:56;;;;;;;743.90;468.80;;;;;;;;;;4920561;29;21194;-67
2023/10/02 05:22:25;;;;;;;733.70;470.05;;;;;;;;;;4923979;29;20531;-66
2023/10/02 05:24:58;;;;;;;732.35;468.25;;;;;;;;;;4918269;29;20440;-66
2023/10/02 05:27:30;;;;;;;734.83;472.40;;;;;;;;;;4931247;29;20907;-67
2023/10/02 05:30:01;;;;;;;753.22;432.25;;;;;;;;;;4926704;29;20439;-67
2023/10/02 05:32:31;;;;;;;732.65;444.10;;;;;;;;;;4926789;29;21155;-67
2023/10/02 05:37:54;;;;;;;714.90;440.55;;;;;;;;;;4923759;29;20435;-67
2023/10/02 05:50:53;;;;;;;695.83;409.03;;;;;;;;;;4918107;29;20443;-67
2023/10/02 05:53:34;;;;;;;693.57;406.70;;;;;;;;;;4929486;29;20678;-67
2023/10/02 05:56:05;;;;;;;691.92;403.30;;;;;;;;;;4922410;29;20513;-67
2023/10/02 05:58:36;;;;;;;690.60;405.60;;;;;;;;;;4918787;29;20452;-67
2023/10/02 06:01:05;;;;;;;692.97;407.77;;;;;;;;;;4927797;29;20863;-67
2023/10/02 06:03:35;;;;;;;689.63;401.05;;;;;;;;;;4922924;29;20439;-66
2023/10/02 06:06:18;;;;;;;691.60;403.42;;;;;;;;;;4926310;29;20435;-67
2023/10/02 06:08:48;;;;;;;693.35;412.20;;;;;;;;;;4920744;29;20441;-67
2023/10/02 06:11:34;;;;;;;700.40;414.63;;;;;;;;;;4926288;29;20947;-67
2023/10/02 06:14:10;;;;;;;703.25;403.73;;;;;;;;;;4915740;29;20440;-67
2023/10/02 06:16:39;;;;;;;698.20;401.30;;;;;;;;;;4919826;29;20543;-69
2023/10/02 06:19:14;;;;;;;686.55;394.63;;;;;;;;;;4919440;29;20464;-67
2023/10/02 06:21:45;;;;;;;666.78;379.35;;;;;;;;;;4911130;29;20926;-67
2023/10/02 06:24:17;;;;;;;638.55;349.13;;;;;;;;;;4929064;29;20518;-68
2023/10/02 06:26:55;;;;;;;604.15;313.08;;;;;;;;;;4923460;29;20431;-68
2023/10/02 06:29:22;;;;;;;582.42;295.20;;;;;;;;;;4928242;29;20442;-68
2023/10/02 06:31:51;;;;;;;592.00;314.58;;;;;;;;;;4925223;29;20514;-68
2023/10/02 06:34:18;;;;;;;639.05;371.45;;;;;;;;;;4927842;29;20443;-68
2023/10/02 06:37:02;;;;;;;720.67;432.20;;;;;;;;;;4925000;29;20442;-68
2023/10/02 06:39:35;;;;;;;813.67;541.65;;;;;;;;;;4930410;29;20471;-68
2023/10/02 06:42:06;;;;;;;867.97;587.80;;;;;;;;;;4922998;29;20445;-68
2023/10/02 06:44:52;;;;;;;894.03;604.38;;;;;;;;;;4922663;29;20843;-68
2023/10/02 06:47:41;;;;;;;956.33;658.42;;;;;;;;;;4928754;29;20547;-68
2023/10/02 06:50:27;;;;;;;972.42;690.95;;;;;;;;;;4920091;29;20437;-68
2023/10/02 06:52:55;;;;;;;967.37;722.80;;;;;;;;;;4924130;29;20447;-68
2023/10/02 06:55:24;;;;;;;783.28;707.70;;;;;;;;;;4923257;29;20522;-68
2023/10/02 06:57:52;;;;;;;819.33;738.28;;;;;;;;;;4923531;29;20442;-68
2023/10/02 07:00:21;;;;;;;831.85;748.15;;;;;;;;;;4928501;29;20506;-68
2023/10/02 07:02:58;;;;;;;965.63;697.00;;;;;;;;;;4929569;29;20444;-68
2023/10/02 07:05:27;;;;;;;959.53;692.03;;;;;;;;;;4916713;29;20445;-68
2023/10/02 07:08:01;;;;;;;904.25;706.83;;;;;;;;;;4925215;29;20471;-68
2023/10/02 07:10:41;;;;;;;923.42;716.97;;;;;;;;;;4919264;29;20445;-69
2023/10/02 07:13:24;;;;;;;828.75;737.13;;;;;;;;;;4921627;29;20445;-68
2023/10/02 07:15:55;;;;;;;1009.85;769.85;;;;;;;;;;4926671;29;20443;-68
2023/10/02 07:18:37;;;;;;;981.97;805.20;;;;;;;;;;4916472;29;20449;-69
2023/10/02 07:21:08;;;;;;;908.13;807.97;;;;;;;;;;4922073;29;20550;-69
2023/10/02 07:23:39;;;;;;;960.83;840.50;;;;;;;;;;4916285;29;20479;-69
2023/10/02 07:26:13;;;;;;;1000.60;829.90;;;;;;;;;;4923228;29;20431;-69
2023/10/02 07:28:50;;;;;;;1035.68;829.58;;;;;;;;;;4912308;29;20456;-69
2023/10/02 07:31:20;;;;;;;981.50;814.90;;;;;;;;;;4916517;29;20540;-69
2023/10/02 07:33:47;;;;;;;930.30;829.58;;;;;;;;;;4905168;29;20806;-69
2023/10/02 07:36:15;;;;;;;1013.33;808.53;;;;;;;;;;4921883;29;20486;-70
2023/10/02 07:38:46;;;;;;;947.95;819.17;;;;;;;;;;4921177;29;20521;-67
2023/10/02 07:41:28;;;;;;;975.97;810.97;;;;;;;;;;4919750;29;20441;-67
2023/10/02 07:44:07;;;;;;;1012.45;799.65;;;;;;;;;;4919338;29;20443;-68
2023/10/02 07:46:36;;;;;;;991.65;769.85;;;;;;;;;;4925284;29;20916;-69
2023/10/02 07:49:05;;;;;;;1006.72;790.95;;;;;;;;;;4926828;29;20442;-70
2023/10/02 07:51:36;;;;;;;986.75;770.92;;;;;;;;;;4915061;29;20439;-70
2023/10/02 07:54:07;;;;;;;947.20;812.13;;;;;;;;;;4919382;29;20451;-69
2023/10/02 07:56:35;;;;;;;1008.05;792.90;;;;;;;;;;4919726;29;20531;-69
2023/10/02 07:59:03;;;;;;;1008.67;793.85;;;;;;;;;;4922992;29;20444;-70
2023/10/02 08:01:33;;;;;;;1009.88;797.13;;;;;;;;;;4909855;29;20451;-69
2023/10/02 08:04:01;;;;;;;955.47;812.35;;;;;;;;;;4923698;29;20445;-68
2023/10/02 08:06:42;;;;;;;1017.45;812.40;;;;;;;;;;4921911;29;20496;-70
2023/10/02 08:09:38;;;;;;;1050.38;866.72;;;;;;;;;;4922429;29;20439;-69
2023/10/02 08:12:08;;;;;;;1040.90;853.47;;;;;;;;;;4920443;29;20931;-70
2023/10/02 08:14:40;;;;;;;1002.08;890.95;;;;;;;;;;4916310;29;20449;-70
2023/10/02 08:17:35;;;;;;;953.22;848.75;;;;;;;;;;4922969;29;20433;-68
2023/10/02 08:20:24;;;;;;;1034.78;850.50;;;;;;;;;;4925270;29;20451;-68
2023/10/02 08:22:52;;;;;;;1028.50;848.10;;;;;;;;;;4920786;29;20464;-69
2023/10/02 08:25:23;;;;;;;1025.15;823.40;;;;;;;;;;4924977;29;20436;-68
2023/10/02 08:27:56;;;;;;;1024.93;822.53;;;;;;;;;;4928090;29;20447;-67
2023/10/02 08:30:35;;;;;;;1031.22;833.03;;;;;;;;;;4922970;29;20437;-67
2023/10/02 08:33:06;;;;;;;1007.78;796.47;;;;;;;;;;4921011;29;20471;-68
2023/10/02 08:35:46;;;;;;;987.83;773.63;;;;;;;;;;4923877;29;20470;-68
2023/10/02 08:38:26;;;;;;;994.53;778.97;;;;;;;;;;4930427;29;20543;-66
2023/10/02 08:40:57;;;;;;;987.15;762.92;;;;;;;;;;4919911;29;20445;-69
2023/10/02 08:43:28;;;;;;;1021.85;813.13;;;;;;;;;;4918564;29;20439;-68
2023/10/02 08:45:59;;;;;;;1013.13;803.30;;;;;;;;;;4917830;29;20480;-69
2023/10/02 08:48:31;;;;;;;1030.63;852.97;;;;;;;;;;4922477;29;20550;-68
2023/10/02 08:50:59;;;;;;;1041.50;860.72;;;;;;;;;;4924521;29;20439;-68
2023/10/02 08:53:26;;;;;;;1037.75;849.60;;;;;;;;;;4919922;29;20521;-68
2023/10/02 08:56:21;;;;;;;946.97;849.80;;;;;;;;;;4926811;29;20641;-68
2023/10/02 09:01:35;;;;;;;1048.80;873.17;;;;;;;;;;4924146;29;20450;-70
2023/10/02 09:09:45;;;;;;;908.63;832.57;;;;;;;;;;4932680;29;20450;-70
2023/10/02 09:12:17;;;;;;;1001.53;904.17;;;;;;;;;;4924871;29;20568;-69
2023/10/02 09:14:44;;;;;;;873.50;800.03;;;;;;;;;;4907579;29;20439;-69
2023/10/02 09:17:18;;;;;;;847.58;777.20;;;;;;;;;;4924266;29;20443;-70
2023/10/02 09:19:58;;;;;;;1034.32;939.13;;;;;;;;;;4920885;29;20445;-67
2023/10/02 09:22:27;;;;;;;1056.40;915.65;;;;;;;;;;4918072;29;20449;-68
2023/10/02 09:25:09;;;;;;;1057.87;903.67;;;;;;;;;;4928506;29;20443;-70
2023/10/02 09:27:41;;;;;;;949.97;866.38;;;;;;;;;;4924696;29;20836;-68
2023/10/02 09:30:36;;;;;;;985.65;873.78;;;;;;;;;;4931412;29;20834;-70
2023/10/02 09:33:14;;;;;;;1034.60;881.72;;;;;;;;;;4918144;29;20531;-67
2023/10/02 09:36:05;;;;;;;1010.70;828.33;;;;;;;;;;4927162;29;20426;-71
2023/10/02 09:38:53;;;;;;;1027.78;852.90;;;;;;;;;;4920998;29;20522;-68
2023/10/02 09:41:23;;;;;;;1025.87;858.57;;;;;;;;;;4917607;29;20466;-70
2023/10/02 09:43:50;;;;;;;1044.53;878.75;;;;;;;;;;4924420;29;20437;-66
2023/10/02 09:46:28;;;;;;;1046.07;905.65;;;;;;;;;;4921055;29;20440;-69
2023/10/02 09:49:04;;;;;;;1033.90;877.25;;;;;;;;;;4916831;29;20528;-70
2023/10/02 09:54:40;;;;;;;1018.53;929.88;;;;;;;;;;4925896;29;20455;-70
2023/10/02 09:57:13;;;;;;;1050.73;935.07;;;;;;;;;;4925901;29;20444;-70
2023/10/02 09:59:47;;;;;;;1079.00;973.30;;;;;;;;;;4920191;29;20455;-71
2023/10/02 10:07:59;;;;;;;1076.82;968.08;;;;;;;;;;4929836;29;21017;-71
2023/10/02 10:10:47;;;;;;;1057.72;923.13;;;;;;;;;;4922063;29;20437;-70
2023/10/02 10:13:33;;;;;;;1066.40;931.03;;;;;;;;;;4922650;29;21066;-70
2023/10/02 10:16:18;;;;;;;1062.22;933.90;;;;;;;;;;4923389;29;21035;-69
2023/10/02 10:21:56;;;;;;;1027.63;890.90;;;;;;;;;;4922663;29;20478;-71
2023/10/02 10:24:35;;;;;;;1034.95;900.88;;;;;;;;;;4920321;29;20431;-67
2023/10/02 10:27:02;;;;;;;1134.22;999.90;;;;;;;;;;4923871;29;20443;-70
2023/10/02 10:29:41;;;;;;;1059.50;939.55;;;;;;;;;;4928825;29;20443;-67
2023/10/02 10:32:18;;;;;;;1142.78;999.90;;;;;;;;;;4917440;29;20444;-70
2023/10/02 10:35:11;;;;;;;1170.75;999.90;;;;;;;;;;4918773;29;20439;-70
2023/10/02 10:37:41;;;;;;;1057.82;940.85;;;;;;;;;;4919983;29;20439;-69
2023/10/02 10:40:43;;;;;;;1074.40;956.42;;;;;;;;;;4924311;29;20452;-71
2023/10/02 10:43:05;;;;;;;1105.70;985.90;;;;;;;;;;4928242;29;20475;-71
2023/10/02 10:45:33;;;;;;;1073.65;955.13;;;;;;;;;;4919940;29;20784;-67
2023/10/02 10:48:01;;;;;;;1048.38;928.58;;;;;;;;;;4925843;29;20477;-70
2023/10/02 10:50:30;;;;;;;1046.40;920.20;;;;;;;;;;4925504;29;20443;-71
2023/10/02 10:53:26;;;;;;;1056.33;938.57;;;;;;;;;;4923909;29;20477;-69
2023/10/02 10:55:54;;;;;;;1061.50;932.40;;;;;;;;;;4922661;29;20486;-71
2023/10/02 10:58:31;;;;;;;1074.13;957.42;;;;;;;;;;4926526;29;20478;-68
2023/10/02 11:00:58;;;;;;;1101.07;981.47;;;;;;;;;;4917971;29;20435;-70
2023/10/02 11:03:26;;;;;;;1049.93;923.80;;;;;;;;;;4920221;29;20447;-67
2023/10/02 11:06:01;;;;;;;1045.60;911.50;;;;;;;;;;4918449;29;20539;-71
2023/10/02 11:08:30;;;;;;;1071.63;952.17;;;;;;;;;;4925692;29;20439;-71
2023/10/02 11:11:09;;;;;;;1109.65;990.00;;;;;;;;;;4928535;29;20787;-69
2023/10/02 11:16:30;;;;;;;1124.03;999.90;;;;;;;;;;4922309;29;20930;-71
2023/10/02 11:22:01;;;;;;;1054.10;966.17;;;;;;;;;;4921025;29;20532;-67
2023/10/02 11:24:28;;;;;;;1089.60;998.65;;;;;;;;;;4920320;29;20439;-71
2023/10/02 11:27:11;;;;;;;1151.82;999.90;;;;;;;;;;4915310;29;20436;-71
2023/10/02 11:29:40;;;;;;;1177.50;999.90;;;;;;;;;;4855948;29;1789114;-71
2023/10/02 11:32:22;;;;;;;1177.30;999.90;;;;;;;;;;4918789;29;20450;-71
2023/10/02 11:34:50;;;;;;;1192.68;999.90;;;;;;;;;;4926134;29;20866;-72
2023/10/02 11:37:19;;;;;;;1239.05;999.90;;;;;;;;;;4921535;29;20535;-71
2023/10/02 11:39:50;;;;;;;1217.93;999.90;;;;;;;;;;4927602;29;20442;-72
2023/10/02 11:42:19;;;;;;;1179.43;999.90;;;;;;;;;;4927489;29;20926;-67
2023/10/02 11:44:48;;;;;;;1206.22;999.90;;;;;;;;;;4924658;29;20468;-69
2023/10/02 11:47:16;;;;;;;167.50;154.05;;;;;;;;;;4919094;29;20602;-69
2023/10/02 11:49:44;;;;;;;12.55;6.50;;;;;;;;;;4927147;29;20511;-71
2023/10/02 11:52:12;;;;;;;199.25;183.45;;;;;;;;;;4898583;29;20969;-70
2023/10/02 11:54:42;;;;;;;1178.50;999.90;;;;;;;;;;4914227;29;20497;-71
2023/10/02 11:57:13;;;;;;;1194.10;999.90;;;;;;;;;;4902819;29;20445;-70
2023/10/02 11:59:42;;;;;;;1164.80;999.90;;;;;;;;;;4915350;29;20449;-71
2023/10/02 12:02:13;;;;;;;1201.85;999.90;;;;;;;;;;4918732;29;20572;-71
2023/10/02 12:04:40;;;;;;;1177.47;999.90;;;;;;;;;;4922501;29;20506;-66
2023/10/02 12:07:08;;;;;;;1180.60;999.90;;;;;;;;;;4915082;29;20478;-72
2023/10/02 12:09:38;;;;;;;1183.88;999.90;;;;;;;;;;4918110;29;20448;-71
2023/10/02 12:12:11;;;;;;;1228.20;999.90;;;;;;;;;;4918135;29;20539;-72
2023/10/02 12:14:39;;;;;;;1204.28;999.90;;;;;;;;;;4919434;29;20443;-72
2023/10/02 12:17:11;;;;;;;1123.03;999.90;;;;;;;;;;4922331;29;20477;-68
2023/10/02 12:19:40;;;;;;;1097.63;980.30;;;;;;;;;;4914008;29;20451;-71
2023/10/02 12:22:07;;;;;;;1171.60;999.90;;;;;;;;;;4916353;29;20527;-71
2023/10/02 12:24:37;;;;;;;1182.17;999.90;;;;;;;;;;4918133;29;20439;-71
2023/10/02 12:27:10;;;;;;;1194.13;999.90;;;;;;;;;;4913749;29;20441;-71
2023/10/02 12:29:38;;;;;;;1212.10;999.90;;;;;;;;;;4916041;29;20436;-65
2023/10/02 12:32:07;;;;;;;1179.37;999.90;;;;;;;;;;4904567;29;20516;-70
2023/10/02 12:34:34;;;;;;;1226.47;999.90;;;;;;;;;;4924496;29;20447;-71
2023/10/02 12:37:03;;;;;;;1211.15;999.90;;;;;;;;;;4918781;29;20441;-69
2023/10/02 12:39:30;;;;;;;1200.35;999.90;;;;;;;;;;4925871;29;20443;-70
2023/10/02 12:42:00;;;;;;;1180.68;999.90;;;;;;;;;;4920429;29;20475;-71
2023/10/02 12:44:30;;;;;;;1194.25;999.90;;;;;;;;;;4918309;29;20448;-71
2023/10/02 12:46:58;;;;;;;1194.45;999.90;;;;;;;;;;4924772;29;20439;-69
2023/10/02 12:49:25;;;;;;;1184.07;999.90;;;;;;;;;;4918248;29;20444;-71
2023/10/02 12:51:53;;;;;;;1212.00;999.90;;;;;;;;;;4926204;29;20445;-71
2023/10/02 12:54:20;;;;;;;1183.78;999.90;;;;;;;;;;4923159;29;20508;-71
2023/10/02 12:56:47;;;;;;;1172.60;999.90;;;;;;;;;;4926735;29;20443;-71
2023/10/02 12:59:15;;;;;;;1214.60;999.90;;;;;;;;;;4928193;29;20435;-71
2023/10/02 13:01:44;;;;;;;1237.07;999.90;;;;;;;;;;4925319;29;20504;-71
2023/10/02 13:04:14;;;;;;;1261.57;999.90;;;;;;;;;;4919678;29;20452;-66
2023/10/02 13:06:45;;;;;;;1236.55;999.90;;;;;;;;;;4924708;29;20439;-68
2023/10/02 13:09:15;;;;;;;1206.25;999.90;;;;;;;;;;4916491;29;20433;-68
2023/10/02 13:11:47;;;;;;;1173.18;999.90;;;;;;;;;;4924239;29;20469;-71
2023/10/02 13:14:17;;;;;;;1174.10;999.90;;;;;;;;;;4920990;29;20444;-71
2023/10/02 13:16:48;;;;;;;1160.85;999.90;;;;;;;;;;4910867;29;20443;-69
2023/10/02 13:19:16;;;;;;;1109.60;992.75;;;;;;;;;;4914230;29;20924;-70
2023/10/02 13:21:44;;;;;;;1070.93;956.38;;;;;;;;;;4906922;29;20477;-69
2023/10/02 13:24:15;;;;;;;1080.93;965.33;;;;;;;;;;4915367;29;20453;-70
2023/10/02 13:26:43;;;;;;;1054.28;939.80;;;;;;;;;;4930074;29;20965;-70
2023/10/02 13:29:11;;;;;;;1060.65;945.92;;;;;;;;;;4922915;29;20441;-70
2023/10/02 13:31:38;;;;;;;1063.60;949.13;;;;;;;;;;4927746;29;20435;-71
2023/10/02 13:34:09;;;;;;;1108.55;991.60;;;;;;;;;;4929080;29;20476;-71
2023/10/02 13:36:37;;;;;;;1110.53;992.78;;;;;;;;;;4925849;29;21021;-69
2023/10/02 13:39:04;;;;;;;1081.70;965.70;;;;;;;;;;4927238;29;20452;-71
2023/10/02 13:41:34;;;;;;;1099.95;982.10;;;;;;;;;;4903032;29;20934;-71
2023/10/02 13:44:03;;;;;;;1119.72;999.90;;;;;;;;;;4930352;29;20435;-67
2023/10/02 13:46:34;;;;;;;1124.72;999.90;;;;;;;;;;4923449;29;20522;-69
2023/10/02 13:49:05;;;;;;;1133.65;999.90;;;;;;;;;;4924004;29;20443;-71
2023/10/02 13:51:32;;;;;;;1148.95;999.90;;;;;;;;;;4922987;29;20432;-72
2023/10/02 13:53:59;;;;;;;1164.15;999.90;;;;;;;;;;4923235;29;20530;-71
2023/10/02 13:56:27;;;;;;;1166.47;999.90;;;;;;;;;;4922421;29;20444;-72
2023/10/02 13:58:57;;;;;;;1153.43;999.90;;;;;;;;;;4925000;29;20435;-72
2023/10/02 14:01:25;;;;;;;1149.40;999.90;;;;;;;;;;4925170;29;20438;-71
2023/10/02 14:03:53;;;;;;;1175.65;999.90;;;;;;;;;;4927694;29;20494;-71
2023/10/02 14:06:23;;;;;;;1188.60;999.90;;;;;;;;;;4920391;29;20459;-70
2023/10/02 14:08:50;;;;;;;1129.47;999.90;;;;;;;;;;4923104;29;20475;-71
2023/10/02 14:11:25;;;;;;;1104.57;985.65;;;;;;;;;;4923951;29;20477;-69
2023/10/02 14:13:59;;;;;;;1094.45;976.13;;;;;;;;;;4926573;29;20523;-71
2023/10/02 14:16:27;;;;;;;1098.47;981.33;;;;;;;;;;4928158;29;20450;-70
2023/10/02 14:18:57;;;;;;;1043.47;929.60;;;;;;;;;;4927862;29;21052;-71
2023/10/02 14:21:25;;;;;;;1069.97;953.77;;;;;;;;;;4925307;29;20443;-72
2023/10/02 14:23:54;;;;;;;1080.40;963.90;;;;;;;;;;4922004;29;20455;-71
2023/10/02 14:26:22;;;;;;;1088.60;971.40;;;;;;;;;;4923291;29;20439;-69
2023/10/02 14:28:58;;;;;;;1082.33;965.83;;;;;;;;;;4919612;29;20478;-70
2023/10/02 14:31:32;;;;;;;1091.78;974.15;;;;;;;;;;4922201;29;20441;-71
2023/10/02 14:34:00;;;;;;;1154.93;999.90;;;;;;;;;;4922734;29;20445;-68
2023/10/02 14:36:28;;;;;;;1153.05;999.90;;;;;;;;;;4919217;29;20441;-69
2023/10/02 14:38:57;;;;;;;1190.93;999.90;;;;;;;;;;4919929;29;20444;-71
2023/10/02 14:41:26;;;;;;;1157.45;999.90;;;;;;;;;;4925306;29;20987;-71
2023/10/02 14:43:54;;;;;;;1155.25;999.90;;;;;;;;;;4926641;29;20443;-71
2023/10/02 14:46:21;;;;;;;1156.65;999.90;;;;;;;;;;4918482;29;21009;-71
2023/10/02 14:48:53;;;;;;;1161.18;999.90;;;;;;;;;;4922764;29;20447;-68
2023/10/02 14:51:22;;;;;;;1185.65;999.90;;;;;;;;;;4924679;29;20467;-71
2023/10/02 14:53:50;;;;;;;1197.07;999.90;;;;;;;;;;4920463;29;20431;-68
2023/10/02 14:56:17;;;;;;;1188.45;999.90;;;;;;;;;;4922162;29;20431;-69
2023/10/02 14:58:47;;;;;;;1155.40;999.90;;;;;;;;;;4926082;29;20475;-69
2023/10/02 15:01:16;;;;;;;1095.47;977.47;;;;;;;;;;4905057;29;20444;-68
2023/10/02 15:03:47;;;;;;;1142.55;999.90;;;;;;;;;;4923853;29;20503;-69
2023/10/02 15:06:15;;;;;;;1137.05;999.90;;;;;;;;;;4919828;29;21136;-69
2023/10/02 15:08:46;;;;;;;1150.07;999.90;;;;;;;;;;4921580;29;20448;-69
2023/10/02 15:11:13;;;;;;;1143.07;999.90;;;;;;;;;;4916799;29;20469;-70
2023/10/02 15:13:42;;;;;;;1104.13;986.42;;;;;;;;;;4920567;29;20470;-66
2023/10/02 15:16:11;;;;;;;1105.50;986.75;;;;;;;;;;4919981;29;20802;-67